• Join FlightAware (Why Join?)
  • Login
  • US Flag 
Gobble Gobble! 
11:32PM EST


 

Airport Tracker/Info


-or-


 

Live Flight TrackerFlight Track Log ✈ DAL3784 ✈ 24-Apr-2013 ✈ KATW - KDTW

Flight Track Log - Related Links

Times and Time Zones

All times are in EDT time to prevent confusion due to time zone crossing. See the DAL3784 flight status page for this flight to view local times or setup timezone preferences in your user account.

Time Position Orientation Groundspeed Altitude Reporting Facility
EDT Latitude Longitude Course Direction KTS MPH feet Rate Location/Type
06:32PM 44.3019 -88.4750 72° East 235 270 5,300  Level Minneapolis Center
06:33PM 44.1894 -88.1476 100° East  Level FlightAware Approximate
06:33PM 44.2789 -88.3694 107° East 274 315 8,200  Level Minneapolis Center
06:34PM 44.1738 -88.0233 100° East  Level FlightAware Approximate
06:34PM 44.2550 -88.2578 107° East 292 336 10,800  Level Minneapolis Center
06:35PM 44.1571 -87.8993 101° East  Level FlightAware Approximate
06:35PM 44.2219 -88.1036 107° East 339 390 13,300  Level Minneapolis Center
06:36PM 44.1386 -87.7700 101° East  Level FlightAware Approximate
06:36PM 44.1919 -87.9636 107° East 363 418 15,500  Level Minneapolis Center
06:37PM 44.1600 -87.8194 107° East 379 436 17,400 1,800 Climbing Minneapolis Center
06:38PM 44.1256 -87.6703 108° East 395 455 19,300 1,560 Climbing Minneapolis Center
06:39PM 44.0667 -87.5342 121° Southeast 407 468 20,700 780 Climbing Minneapolis Center
06:40PM 44.0050 -87.3917 121° Southeast 421 484 21,000 120 Climbing Minneapolis Center
06:41PM 43.9314 -87.2219 121° Southeast 434 499 21,000  Level Minneapolis Center
06:42PM 43.8792 -87.1028 121° Southeast 432 497 21,000  Level Minneapolis Center
06:43PM 43.8089 -86.9383 121° Southeast 418 481 21,000  Level Minneapolis Center
06:44PM 43.7517 -86.7608 114° Southeast 421 484 21,000  Level Minneapolis Center
06:45PM 43.7039 -86.6117 114° Southeast 424 488 21,000  Level Minneapolis Center
06:46PM 43.6550 -86.4614 114° Southeast 427 491 21,000  Level Minneapolis Center
06:47PM 43.6164 -86.3400 114° Southeast 431 496 21,000  Level Chicago Center
06:48PM 43.5669 -86.1872 114° Southeast 435 501 21,000  Level Chicago Center
06:49PM 43.5167 -86.0350 114° Southeast 435 501 21,000  Level Chicago Center
06:50PM 43.4669 -85.8817 114° Southeast 435 501 21,000  Level Chicago Center
06:51PM 43.4358 -85.7894 115° Southeast 436 502 21,000  Level Minneapolis Center
06:52PM 43.3861 -85.6378 114° Southeast 434 499 21,000  Level Minneapolis Center
06:53PM 43.3350 -85.4856 115° Southeast 434 499 21,000  Level Minneapolis Center
06:53PM 43.3042 -85.3947 115° Southeast 436 502 21,000  Level Chicago Center
06:54PM 43.2725 -85.3000 115° Southeast 439 505 21,000  Level Cleveland Center
06:55PM 43.2331 -85.1431 109° East 439 505 21,000  Level Cleveland Center
06:56PM 43.2017 -84.9811 105° East 439 505 21,000  Level Cleveland Center
06:57PM 43.1703 -84.8222 105° East 439 505 21,000 -480 Level Cleveland Center
06:58PM 43.1406 -84.6581 104° East 439 505 20,100 -1,200 Descending Cleveland Center
06:59PM 43.1244 -84.5636 103° East 443 510 19,200 -1,560 Descending Chicago Center
07:00PM 43.0942 -84.4008 104° East 443 510 17,700 -1,560 Descending Chicago Center
07:00PM 43.0750 -84.3211 108° East 439 505 16,900 -1,620 Descending Cleveland Center
07:01PM 43.0483 -84.1717 104° East 422 486 15,400 -1,380 Descending Cleveland Center
07:02PM 43.0267 -84.0653 106° East 401 461 14,500 -1,380 Descending Cleveland Center
07:03PM 42.9997 -83.9189 104° East 396 456 13,000 -1,260 Descending Cleveland Center
07:04PM 42.9344 -83.7964 126° Southeast 372 428 12,000 -480 Descending Cleveland Center
07:05PM 42.8400 -83.7375 155° Southeast 337 388 12,000 -480 Level Cleveland Center
07:06PM 42.7681 -83.7000 159° South 304 350 11,100 -1,320 Descending Cleveland Center
07:07PM 42.7011 -83.6375 146° Southeast 290 334 9,600 -1,440 Descending Cleveland Center
07:08PM 42.6367 -83.5494 135° Southeast 297 342 8,000 -1,500 Descending Cleveland Center
07:09PM 42.5864 -83.4794 134° Southeast 300 345 6,600 -1,080 Descending Cleveland Center
07:10PM 42.5258 -83.3950 134° Southeast 286 329 6,000 -900 Descending Cleveland Center
07:11PM 42.4694 -83.3192 135° Southeast 286 329 4,800 -1,020 Descending Cleveland Center
07:12PM 42.3950 -83.2881 163° South 255 293 4,000 -840 Descending Cleveland Center
07:13PM 42.3283 -83.2908 182° South 195 224 3,100 -840 Descending Cleveland Center